Veradale, WA (99037)

4:28 PM PDT on August 03, 2015 (GMT -0700)
APRSWXNET | | Change Station
CLOSE
Current Station
Personal Weather Station
Location: Spokane Valley, WA
Elevation: 2088 ft
Nearby Weather Stations

Elev 2088 ft 47.64 °N, 117.23 °W | Updated 31 minutes ago

Overcast
Overcast
88 °F
Feels Like 85 °F
N
3
Wind Variable Wind from SW
Gusts 6.0 mph

Today
High -- | Low -- °F
--% Chance of Precip.
Yesterday
High -- | Low -- °F
Precip. -- in
5:28 AM 8:20 PM
Waning Gibbous, 83% visible
Pressure 29.79 in
Visibility 6.0 miles
Clouds Clear
Heat Index 85 °F
Dew Point 47 °F
Humidity 24%
Rainfall in
Snow Depth Not available.
UV 5 out of 12
Pollen 6.60 out of 12
Air Quality Not available.
Flu Activity Not available.
SPECI KSFF 032313Z 24011KT 6SM FU CLR 33/04 A2979 RMK AO2 WSHFT 2253 T03280044

More Conditions Fewer Conditions

Pressure 29.79 in
Visibility 6.0 miles
Clouds Clear
Heat Index 85 °F
Dew Point 47 °F
Humidity 24%
Rainfall in
Snow Depth Not available.
UV 5 out of 12
Pollen 6.60 out of 12
Air Quality Not available.
Flu Activity Not available.
SPECI KSFF 032313Z 24011KT 6SM FU CLR 33/04 A2979 RMK AO2 WSHFT 2253 T03280044

More Conditions Fewer Conditions

10-Day Weather Forecast

×

Almanac

Astronomy

Aug. 03, 2015 Rise Set
Actual Time
Civil Twilight
Nautical Twilight
Astronomical Twilight
Moon
Length of Visible Light
Length of Day
Tomorrow will be .
, % of the Moon is Illuminated

Today's Extremes

State Highs State Lows

Community

WunderPhotos

Upload Photos

1,843,786 photos uploaded!

WunderBlogs® & News

Nearby

Air Quality

  Air Quality AQ Index Pollutant
Not available.

Snow Depth

Station Depth Elevation

Earthquake Activity

City Distance Mag. Time & Date
Minimum magnitude displayed is 2.5.

Coastal Water Temperatures

Place Temperature

Stations

Nearby Weather Stations

Station Location Temp. Windchill Dew Point Humidity Wind Precip. Elev Updated Type
                   
Fire Weather Warning
Statement as of 2:58 PM PDT on August 03, 2015

... Red flag warning in effect until 9 PM PDT Wednesday for wind
and low relative humidity for the Palouse region of southeast
Washington...

The National Weather Service in Spokane has issued a red
flag warning for wind and low relative humidity... which is in
effect until 9 PM PDT Wednesday.

* Affected area: fire weather zone 674 East Washington Palouse (zone
674).

* Winds: southwest 10 to 20 mph... with gusts around 30 mph.

* Relative humidities: 10 to 20 percent.

* Impacts: rapid fire spread is possible with any new or ongoing
fires.

Precautionary/preparedness actions...

A red flag warning means that critical fire weather conditions
are either occurring now... or will shortly. A combination of
strong winds... low relative humidity... and warm temperatures will
create extreme fire growth potential.